createdAt,value
2018-08-09T00:00:06.264Z,44.00
2018-08-09T00:02:34.490Z,44.00
2018-08-09T00:05:02.582Z,44.00
2018-08-09T00:07:30.736Z,44.00
2018-08-09T00:09:58.989Z,44.00
2018-08-09T00:12:27.096Z,44.00
2018-08-09T00:14:55.192Z,43.90
2018-08-09T00:17:23.311Z,44.00
2018-08-09T00:19:51.420Z,44.60
2018-08-09T00:22:19.608Z,44.00
2018-08-09T00:24:47.758Z,44.00
2018-08-09T00:27:15.853Z,43.90
2018-08-09T00:29:44.116Z,44.00
2018-08-09T00:32:12.287Z,44.00
2018-08-09T00:34:40.386Z,44.00
2018-08-09T00:37:08.596Z,44.10
2018-08-09T00:39:36.731Z,44.00
2018-08-09T00:42:04.936Z,44.00
2018-08-09T00:44:33.059Z,44.00
2018-08-09T00:47:01.148Z,43.90
2018-08-09T00:49:29.277Z,44.00
2018-08-09T00:51:57.360Z,43.90
2018-08-09T00:54:25.472Z,43.90
2018-08-09T00:56:53.581Z,43.90
2018-08-09T00:59:21.900Z,43.90
2018-08-09T01:01:50.070Z,44.50
2018-08-09T01:04:18.245Z,43.90
2018-08-09T01:06:46.426Z,43.90
2018-08-09T01:09:15.309Z,43.90
2018-08-09T01:11:43.696Z,43.90
2018-08-09T01:14:11.827Z,43.90
2018-08-09T01:16:39.921Z,43.90
2018-08-09T01:19:08.028Z,43.90
2018-08-09T01:21:36.145Z,43.90
2018-08-09T01:24:04.248Z,43.90
2018-08-09T01:26:32.372Z,43.90
2018-08-09T01:29:00.493Z,43.90
2018-08-09T01:31:31.724Z,43.90
2018-08-09T01:34:00.125Z,44.00
2018-08-09T01:36:28.193Z,44.00
2018-08-09T01:38:56.268Z,43.90
2018-08-09T01:41:24.675Z,44.00
2018-08-09T01:43:56.078Z,43.90
2018-08-09T01:46:24.848Z,44.00
2018-08-09T01:48:53.340Z,43.90
2018-08-09T01:51:21.520Z,43.90
2018-08-09T01:53:50.340Z,44.00
2018-08-09T01:56:18.714Z,44.00
2018-08-09T01:58:47.095Z,43.90
2018-08-09T02:01:15.519Z,44.00
2018-08-09T02:03:44.419Z,44.00
2018-08-09T02:06:13.014Z,44.00
2018-08-09T02:08:41.129Z,44.00
2018-08-09T02:11:10.291Z,44.00
2018-08-09T02:13:38.408Z,44.10
2018-08-09T02:16:06.932Z,44.00
2018-08-09T02:18:35.240Z,44.10
2018-08-09T02:21:03.365Z,44.20
2018-08-09T02:23:31.575Z,44.20
2018-08-09T02:25:59.676Z,44.20
2018-08-09T02:28:27.912Z,44.20
2018-08-09T02:30:56.013Z,44.20
2018-08-09T02:33:24.085Z,44.20
2018-08-09T02:35:52.231Z,44.20
2018-08-09T02:38:20.549Z,44.20
2018-08-09T02:40:48.817Z,44.20
2018-08-09T02:43:16.988Z,44.20
2018-08-09T02:45:45.170Z,44.20
2018-08-09T02:48:13.251Z,44.20
2018-08-09T02:50:41.369Z,44.30
2018-08-09T02:53:09.461Z,44.20
2018-08-09T02:55:37.548Z,44.20
2018-08-09T02:58:05.719Z,44.20
2018-08-09T03:00:33.810Z,44.90
2018-08-09T03:03:01.933Z,44.30
2018-08-09T03:05:30.032Z,44.30
2018-08-09T03:07:58.206Z,44.30
2018-08-09T03:10:26.303Z,44.30
2018-08-09T03:12:54.452Z,44.80
2018-08-09T03:15:22.652Z,44.30
2018-08-09T03:17:50.900Z,44.30
2018-08-09T03:20:19.374Z,44.20
2018-08-09T03:22:47.565Z,44.30
2018-08-09T03:25:15.765Z,44.40
2018-08-09T03:27:43.877Z,44.40
2018-08-09T03:30:12.072Z,44.40
2018-08-09T03:32:40.203Z,44.40
2018-08-09T03:35:08.286Z,44.40
2018-08-09T03:37:36.408Z,44.30
2018-08-09T03:40:05.065Z,44.40
2018-08-09T03:42:33.148Z,44.40
2018-08-09T03:45:01.249Z,44.40
2018-08-09T03:47:29.359Z,44.40
2018-08-09T03:49:57.464Z,44.40
2018-08-09T03:52:25.621Z,44.40
2018-08-09T03:54:53.737Z,44.40
2018-08-09T03:57:21.971Z,44.40
2018-08-09T03:59:50.081Z,44.40
2018-08-09T04:02:18.253Z,44.50
2018-08-09T04:04:46.655Z,44.40
2018-08-09T04:07:14.880Z,44.50
2018-08-09T04:09:42.960Z,44.50
2018-08-09T04:12:11.100Z,44.40
2018-08-09T04:14:39.208Z,44.40
2018-08-09T04:17:12.466Z,44.40
2018-08-09T04:19:40.619Z,44.40
2018-08-09T04:22:08.825Z,44.40
2018-08-09T04:24:37.381Z,44.40
2018-08-09T04:27:05.481Z,44.40
2018-08-09T04:29:33.668Z,44.30
2018-08-09T04:32:01.782Z,44.30
2018-08-09T04:34:29.912Z,44.30
2018-08-09T04:36:58.017Z,44.30
2018-08-09T04:39:26.145Z,44.30
2018-08-09T04:41:54.323Z,44.30
2018-08-09T04:44:22.508Z,44.30
2018-08-09T04:46:50.707Z,44.30
2018-08-09T04:49:18.925Z,44.30
2018-08-09T04:51:47.132Z,44.30
2018-08-09T04:54:15.293Z,44.30
2018-08-09T04:56:43.419Z,44.30
2018-08-09T04:59:11.543Z,44.20
2018-08-09T05:01:39.742Z,44.30
2018-08-09T05:04:07.836Z,44.20
2018-08-09T05:06:35.933Z,44.20
2018-08-09T05:09:06.038Z,44.20
2018-08-09T05:11:34.372Z,44.30
2018-08-09T05:14:02.654Z,44.30
2018-08-09T05:16:30.864Z,44.20
2018-08-09T05:18:58.989Z,44.20
2018-08-09T05:21:27.077Z,44.20
2018-08-09T05:23:55.217Z,44.30
2018-08-09T05:26:23.374Z,44.20
2018-08-09T05:28:51.609Z,44.20
2018-08-09T05:31:19.785Z,44.10
2018-08-09T05:33:47.975Z,44.30
2018-08-09T05:36:16.191Z,44.20
2018-08-09T05:38:44.505Z,44.20
2018-08-09T05:41:12.596Z,44.20
2018-08-09T05:43:40.775Z,44.20
2018-08-09T05:46:09.125Z,44.20
2018-08-09T05:48:37.244Z,44.10
2018-08-09T05:51:05.396Z,44.10
2018-08-09T05:53:33.472Z,44.10
2018-08-09T05:56:01.637Z,44.70
2018-08-09T05:58:29.807Z,44.10
2018-08-09T06:00:57.975Z,44.10
2018-08-09T06:03:26.136Z,44.20
2018-08-09T06:05:54.274Z,44.10
2018-08-09T06:08:22.428Z,44.20
2018-08-09T06:10:50.757Z,44.10
2018-08-09T06:13:18.998Z,44.10
2018-08-09T06:15:47.310Z,44.20
2018-08-09T06:18:15.742Z,44.10
2018-08-09T06:20:43.896Z,44.10
2018-08-09T06:23:11.986Z,44.10
2018-08-09T06:25:40.125Z,44.10
2018-08-09T06:28:08.232Z,44.10
2018-08-09T06:30:36.392Z,44.20
2018-08-09T06:33:04.558Z,44.10
2018-08-09T06:35:32.628Z,44.10
2018-08-09T06:38:00.704Z,44.00
2018-08-09T06:40:28.810Z,44.10
2018-08-09T06:42:56.963Z,44.00
2018-08-09T06:45:25.101Z,44.00
2018-08-09T06:47:53.292Z,44.00
2018-08-09T06:50:21.486Z,44.00
2018-08-09T06:52:49.615Z,44.20
2018-08-09T06:55:17.922Z,43.90
2018-08-09T06:57:46.212Z,43.90
2018-08-09T07:00:14.280Z,43.80
2018-08-09T07:02:42.835Z,43.70
2018-08-09T07:05:11.080Z,43.70
2018-08-09T07:07:40.117Z,43.70
2018-08-09T07:10:08.797Z,43.70
2018-08-09T07:12:36.895Z,44.30
2018-08-09T07:15:08.437Z,43.60
2018-08-09T07:17:36.516Z,43.80
2018-08-09T07:20:05.235Z,43.40
2018-08-09T07:22:33.348Z,43.40
2018-08-09T07:25:01.483Z,43.30
2018-08-09T07:27:29.611Z,43.20
2018-08-09T07:29:57.972Z,43.10
2018-08-09T07:32:26.132Z,43.10
2018-08-09T07:34:54.407Z,43.00
2018-08-09T07:37:22.600Z,43.00
2018-08-09T07:39:51.112Z,43.00
2018-08-09T07:42:19.356Z,42.90
2018-08-09T07:44:47.738Z,42.90
2018-08-09T07:47:16.170Z,42.90
2018-08-09T07:49:44.313Z,42.90
2018-08-09T07:52:12.444Z,42.80
2018-08-09T07:54:40.549Z,42.90
2018-08-09T07:57:08.721Z,42.90
2018-08-09T07:59:36.774Z,42.90
2018-08-09T08:02:04.944Z,42.80
2018-08-09T08:04:33.064Z,42.80
2018-08-09T08:07:01.168Z,42.80
2018-08-09T08:09:29.276Z,42.70
2018-08-09T08:11:57.430Z,42.70
2018-08-09T08:14:25.617Z,42.60
2018-08-09T08:16:53.850Z,43.20
2018-08-09T08:19:22.223Z,42.50
2018-08-09T08:21:50.515Z,42.60
2018-08-09T08:24:18.832Z,42.50
2018-08-09T08:26:47.157Z,42.50
2018-08-09T08:29:15.376Z,42.40
2018-08-09T08:31:43.556Z,42.40
2018-08-09T08:34:11.719Z,42.40
2018-08-09T08:36:39.837Z,42.40
2018-08-09T08:39:08.756Z,42.30
2018-08-09T08:41:36.989Z,42.30
2018-08-09T08:44:05.063Z,42.30
2018-08-09T08:46:33.169Z,42.30
2018-08-09T08:49:01.297Z,42.20
2018-08-09T08:51:29.673Z,42.30
2018-08-09T08:53:58.041Z,42.20
2018-08-09T08:56:26.257Z,42.30
2018-08-09T08:58:54.481Z,42.20
2018-08-09T09:01:22.868Z,42.20
2018-08-09T09:03:51.192Z,42.20
2018-08-09T09:06:19.365Z,42.10
2018-08-09T09:08:47.582Z,42.10
2018-08-09T09:11:16.138Z,42.00
2018-08-09T09:13:44.375Z,42.00
2018-08-09T09:16:12.520Z,41.90
2018-08-09T09:18:40.628Z,41.90
2018-08-09T09:21:08.816Z,41.90
2018-08-09T09:23:37.002Z,41.90
2018-08-09T09:26:05.161Z,41.90
2018-08-09T09:28:33.309Z,41.80
2018-08-09T09:31:01.460Z,41.80
2018-08-09T09:33:29.580Z,41.80
2018-08-09T09:35:57.728Z,41.70
2018-08-09T09:38:25.847Z,41.70
2018-08-09T09:40:54.131Z,41.70
2018-08-09T09:43:22.309Z,41.60
2018-08-09T09:45:50.573Z,41.60
2018-08-09T09:48:18.811Z,41.60
2018-08-09T09:50:47.031Z,41.60
2018-08-09T09:53:15.300Z,41.60
2018-08-09T09:55:43.448Z,41.50
2018-08-09T09:58:11.592Z,41.50
2018-08-09T10:00:45.339Z,41.40
2018-08-09T10:03:13.476Z,41.40
2018-08-09T10:05:41.595Z,41.30
2018-08-09T10:08:09.748Z,41.30
2018-08-09T10:10:37.866Z,41.20
2018-08-09T10:13:06.037Z,41.20
2018-08-09T10:15:34.179Z,41.20
2018-08-09T10:18:02.423Z,41.30
2018-08-09T10:20:30.608Z,41.40
2018-08-09T10:22:58.689Z,41.30
2018-08-09T10:25:26.786Z,41.30
2018-08-09T10:27:54.991Z,41.30
2018-08-09T10:30:23.340Z,41.30
2018-08-09T10:32:51.568Z,41.30
2018-08-09T10:35:19.863Z,41.30
2018-08-09T10:37:48.065Z,41.30
2018-08-09T10:40:16.228Z,41.20
2018-08-09T10:42:44.930Z,41.10
2018-08-09T10:45:13.034Z,41.10
2018-08-09T10:47:41.171Z,41.10
2018-08-09T10:50:09.280Z,41.10
2018-08-09T10:52:37.400Z,41.10
2018-08-09T10:55:05.549Z,41.10
2018-08-09T10:57:33.663Z,41.10
2018-08-09T11:00:01.787Z,41.10
2018-08-09T11:02:29.955Z,41.10
2018-08-09T11:04:58.083Z,41.10
2018-08-09T11:07:26.305Z,41.10
2018-08-09T11:09:54.521Z,41.10
2018-08-09T11:12:22.773Z,41.20
2018-08-09T11:14:50.935Z,41.20
2018-08-09T11:17:19.119Z,41.20
2018-08-09T11:19:47.513Z,41.20
2018-08-09T11:22:15.667Z,41.20
2018-08-09T11:24:43.928Z,41.30
2018-08-09T11:27:12.012Z,41.30
2018-08-09T11:29:40.141Z,41.30
2018-08-09T11:32:08.257Z,41.30
2018-08-09T11:34:36.379Z,41.50
2018-08-09T11:37:04.659Z,41.30
2018-08-09T11:39:32.764Z,41.30
2018-08-09T11:42:01.117Z,41.40
2018-08-09T11:44:29.238Z,41.50
2018-08-09T11:46:57.492Z,41.60
2018-08-09T11:49:25.684Z,41.90
2018-08-09T11:51:53.838Z,41.60
2018-08-09T11:54:22.016Z,41.60
2018-08-09T11:56:50.297Z,41.50
2018-08-09T11:59:18.432Z,41.80
2018-08-09T12:01:46.732Z,42.00
2018-08-09T12:04:15.082Z,42.00
2018-08-09T12:06:43.198Z,42.40
2018-08-09T12:09:11.941Z,42.30
2018-08-09T12:11:40.190Z,42.30
2018-08-09T12:14:08.862Z,42.20
2018-08-09T12:16:37.261Z,42.50
2018-08-09T12:19:05.984Z,42.90
2018-08-09T12:21:35.168Z,42.50
2018-08-09T12:24:03.277Z,42.50
2018-08-09T12:26:31.793Z,42.90
2018-08-09T12:28:59.945Z,43.20
2018-08-09T12:31:28.131Z,43.30
2018-08-09T12:33:56.467Z,43.20
2018-08-09T12:36:24.623Z,43.20
2018-08-09T12:38:52.750Z,43.20
2018-08-09T12:41:20.944Z,43.10
2018-08-09T12:43:49.109Z,43.00
2018-08-09T12:46:17.319Z,43.10
2018-08-09T12:48:45.578Z,43.00
2018-08-09T12:51:13.735Z,43.70
2018-08-09T12:53:41.901Z,43.80
2018-08-09T12:56:09.996Z,43.10
2018-08-09T12:58:38.700Z,43.00
2018-08-09T13:01:06.836Z,43.70
2018-08-09T13:03:34.984Z,43.80
2018-08-09T13:06:03.384Z,43.50
2018-08-09T13:08:31.534Z,42.90
2018-08-09T13:10:59.628Z,43.80
2018-08-09T13:13:27.784Z,44.20
2018-08-09T13:15:55.900Z,44.20
2018-08-09T13:18:24.004Z,43.60
2018-08-09T13:20:52.219Z,44.00
2018-08-09T13:23:20.407Z,44.40
2018-08-09T13:25:48.695Z,45.30
2018-08-09T13:28:16.891Z,44.00
2018-08-09T13:30:45.280Z,43.30
2018-08-09T13:33:13.385Z,43.40
2018-08-09T13:35:41.510Z,44.50
2018-08-09T13:38:09.636Z,44.70
2018-08-09T13:40:37.731Z,44.50
2018-08-09T13:43:05.990Z,44.20
2018-08-09T13:45:34.140Z,44.40
2018-08-09T13:48:02.222Z,44.20
2018-08-09T13:50:30.404Z,43.60
2018-08-09T13:52:58.505Z,43.20
2018-08-09T13:55:26.628Z,43.40
2018-08-09T13:57:54.933Z,43.20
2018-08-09T14:00:23.141Z,43.60
2018-08-09T14:02:51.354Z,43.60
2018-08-09T14:05:19.545Z,43.80
2018-08-09T14:07:47.726Z,44.10
2018-08-09T14:10:16.066Z,44.40
2018-08-09T14:12:44.191Z,44.70
2018-08-09T14:15:13.711Z,44.70
2018-08-09T14:17:41.882Z,44.40
2018-08-09T14:20:12.892Z,44.10
2018-08-09T14:22:41.024Z,43.70
2018-08-09T14:25:09.219Z,43.40
2018-08-09T14:27:37.296Z,43.50
2018-08-09T14:30:07.062Z,42.90
2018-08-09T14:32:35.432Z,43.20
2018-08-09T14:35:04.180Z,43.20
2018-08-09T14:37:32.368Z,43.20
2018-08-09T14:40:00.468Z,43.80
2018-08-09T14:42:28.722Z,43.40
2018-08-09T14:44:56.777Z,42.60
2018-08-09T14:47:24.987Z,42.60
2018-08-09T14:49:53.240Z,42.20
2018-08-09T14:52:21.408Z,42.40
2018-08-09T14:54:50.915Z,42.30
2018-08-09T14:57:19.361Z,42.30
2018-08-09T14:59:47.709Z,42.40
2018-08-09T15:02:17.282Z,43.20
2018-08-09T15:04:45.522Z,43.10
2018-08-09T15:07:13.843Z,42.80
2018-08-09T15:09:42.448Z,42.90
2018-08-09T15:12:11.096Z,42.60
2018-08-09T15:14:39.208Z,42.70
2018-08-09T15:17:07.341Z,42.80
2018-08-09T15:19:35.470Z,43.20
2018-08-09T15:22:03.796Z,43.10
2018-08-09T15:24:32.525Z,42.70
2018-08-09T15:29:53.304Z,43.20
2018-08-09T15:32:21.585Z,42.80
2018-08-09T15:34:50.058Z,43.10
2018-08-09T15:37:18.370Z,43.10
2018-08-09T15:39:46.620Z,43.00
2018-08-09T15:42:15.020Z,42.90
2018-08-09T15:44:43.141Z,43.00
2018-08-09T15:47:11.328Z,43.20
2018-08-09T15:49:39.337Z,43.30
2018-08-09T15:52:07.464Z,43.10
2018-08-09T15:54:35.620Z,43.00
2018-08-09T15:57:03.785Z,43.90
2018-08-09T15:59:31.887Z,43.40
2018-08-09T16:01:59.980Z,42.90
2018-08-09T16:04:28.138Z,42.60
2018-08-09T16:06:56.254Z,42.60
2018-08-09T16:09:24.510Z,42.50
2018-08-09T16:11:52.685Z,42.70
2018-08-09T16:14:21.164Z,42.50
2018-08-09T16:16:49.374Z,42.50
2018-08-09T16:19:17.649Z,42.40
2018-08-09T16:21:45.924Z,42.10
2018-08-09T16:24:14.037Z,42.10
2018-08-09T16:26:42.236Z,42.20
2018-08-09T16:29:10.368Z,42.10
2018-08-09T16:31:38.609Z,42.30
2018-08-09T16:34:06.688Z,42.70
2018-08-09T16:36:34.777Z,42.50
2018-08-09T16:39:03.015Z,42.60
2018-08-09T16:41:31.138Z,42.50
2018-08-09T16:43:59.287Z,42.80
2018-08-09T16:46:27.429Z,42.60
2018-08-09T16:48:55.488Z,43.10
2018-08-09T16:51:23.580Z,42.80
2018-08-09T16:53:51.812Z,43.00
2018-08-09T16:56:20.171Z,43.00
2018-08-09T16:58:48.531Z,42.50
2018-08-09T17:01:16.722Z,42.80
2018-08-09T17:03:45.000Z,42.50
2018-08-09T17:06:13.088Z,42.70
2018-08-09T17:08:41.164Z,42.60
2018-08-09T17:11:09.255Z,42.10
2018-08-09T17:13:37.327Z,42.10
2018-08-09T17:16:05.612Z,42.20
2018-08-09T17:18:33.755Z,42.40
2018-08-09T17:21:01.832Z,43.70
2018-08-09T17:23:29.923Z,48.70
2018-08-09T17:25:58.004Z,49.40
2018-08-09T17:28:26.098Z,51.30
2018-08-09T17:30:54.237Z,51.50
2018-08-09T17:33:22.374Z,51.70
2018-08-09T17:35:50.481Z,51.30
2018-08-09T17:38:18.619Z,50.80
2018-08-09T17:40:46.756Z,50.70
2018-08-09T17:43:14.872Z,50.20
2018-08-09T17:45:43.972Z,50.50
2018-08-09T17:48:12.069Z,50.20
2018-08-09T17:50:40.181Z,50.20
2018-08-09T17:53:08.660Z,50.60
2018-08-09T17:55:36.719Z,51.00
2018-08-09T17:58:05.111Z,51.10
2018-08-09T18:00:34.244Z,51.10
2018-08-09T18:03:02.329Z,52.00
2018-08-09T18:05:30.408Z,51.30
2018-08-09T18:07:59.292Z,51.50
2018-08-09T18:10:29.744Z,51.40
2018-08-09T18:12:57.946Z,51.30
2018-08-09T18:15:27.156Z,51.40
2018-08-09T18:17:55.713Z,51.50
2018-08-09T18:20:25.879Z,51.50
2018-08-09T18:22:54.009Z,51.40
2018-08-09T18:25:22.175Z,51.30
2018-08-09T18:27:50.328Z,51.20
2018-08-09T18:30:19.477Z,51.50
2018-08-09T18:32:47.703Z,51.50
2018-08-09T18:35:16.846Z,51.40
2018-08-09T18:37:45.016Z,51.30
2018-08-09T18:40:17.034Z,51.50
2018-08-09T18:42:45.472Z,51.50
2018-08-09T18:45:13.816Z,51.50
2018-08-09T18:47:41.918Z,51.60
2018-08-09T18:50:16.843Z,51.70
2018-08-09T18:52:44.936Z,51.70
2018-08-09T18:55:14.246Z,51.80
2018-08-09T18:57:42.348Z,51.80
2018-08-09T19:00:15.847Z,51.80
2018-08-09T19:02:44.666Z,51.90
2018-08-09T19:05:12.728Z,51.80
2018-08-09T19:07:40.841Z,52.40
2018-08-09T19:10:13.705Z,52.30
2018-08-09T19:12:41.972Z,52.20
2018-08-09T19:15:10.836Z,52.30
2018-08-09T19:17:39.229Z,53.20
2018-08-09T19:20:10.473Z,52.50
2018-08-09T19:22:38.540Z,52.20
2018-08-09T19:25:07.275Z,52.40
2018-08-09T19:27:35.378Z,52.10
2018-08-09T19:30:03.689Z,52.30
2018-08-09T19:32:31.765Z,52.70
2018-08-09T19:34:59.880Z,52.70
2018-08-09T19:37:27.964Z,52.40
2018-08-09T19:39:56.029Z,52.10
2018-08-09T19:42:24.183Z,52.30
2018-08-09T19:44:52.513Z,52.20
2018-08-09T19:47:20.797Z,52.20
2018-08-09T19:49:49.124Z,52.20
2018-08-09T19:52:20.878Z,52.10
2018-08-09T19:54:49.015Z,51.90
2018-08-09T19:57:17.124Z,52.00
2018-08-09T19:59:45.252Z,51.90
2018-08-09T20:02:13.284Z,52.10
2018-08-09T20:04:41.374Z,52.00
2018-08-09T20:07:09.428Z,52.00
2018-08-09T20:09:37.527Z,51.90
2018-08-09T20:12:06.208Z,52.00
2018-08-09T20:14:34.528Z,51.90
2018-08-09T20:17:02.605Z,52.20
2018-08-09T20:19:30.912Z,52.30
2018-08-09T20:21:59.187Z,52.30
2018-08-09T20:24:27.244Z,52.10
2018-08-09T20:26:55.308Z,52.40
2018-08-09T20:29:23.489Z,52.40
2018-08-09T20:31:51.703Z,52.40
2018-08-09T20:34:19.981Z,52.50
2018-08-09T20:36:48.112Z,52.50
2018-08-09T20:39:16.236Z,52.40
2018-08-09T20:41:44.308Z,52.30
2018-08-09T20:44:12.408Z,52.50
2018-08-09T20:46:40.544Z,52.40
2018-08-09T20:49:08.782Z,52.50
2018-08-09T20:51:36.884Z,52.60
2018-08-09T20:54:04.955Z,52.30
2018-08-09T20:56:33.028Z,52.30
2018-08-09T20:59:01.137Z,52.30
2018-08-09T21:01:29.241Z,52.50
2018-08-09T21:03:57.312Z,52.40
2018-08-09T21:06:25.435Z,52.40
2018-08-09T21:08:53.560Z,52.50
2018-08-09T21:11:21.661Z,52.30
2018-08-09T21:13:49.764Z,52.40
2018-08-09T21:16:17.996Z,52.30
2018-08-09T21:18:47.518Z,52.20
2018-08-09T21:21:15.768Z,52.10
2018-08-09T21:23:43.856Z,52.70
2018-08-09T21:26:11.929Z,52.10
2018-08-09T21:28:40.026Z,52.20
2018-08-09T21:31:08.076Z,52.00
2018-08-09T21:33:36.265Z,52.10
2018-08-09T21:36:04.459Z,52.00
2018-08-09T21:38:32.540Z,52.00
2018-08-09T21:41:00.620Z,52.00
2018-08-09T21:43:28.760Z,52.00
2018-08-09T21:45:56.816Z,52.00
2018-08-09T21:48:24.962Z,52.20
2018-08-09T21:50:53.093Z,52.10
2018-08-09T21:53:21.275Z,52.30
2018-08-09T21:55:49.531Z,52.40
2018-08-09T21:58:17.654Z,52.20
2018-08-09T22:00:52.792Z,52.10
2018-08-09T22:03:26.770Z,52.10
2018-08-09T22:06:00.374Z,52.10
2018-08-09T22:08:34.019Z,52.10
2018-08-09T22:11:07.738Z,52.00
2018-08-09T22:15:45.866Z,52.10
2018-08-09T22:18:19.328Z,52.10
2018-08-09T22:21:56.025Z,52.10
2018-08-09T22:24:24.096Z,52.10
2018-08-09T22:26:52.216Z,52.10
2018-08-09T22:29:20.448Z,52.10
2018-08-09T22:31:48.601Z,51.90
2018-08-09T22:34:16.739Z,52.00
2018-08-09T22:36:44.829Z,51.90
2018-08-09T22:39:12.904Z,52.30
2018-08-09T22:41:41.000Z,52.20
2018-08-09T22:44:09.093Z,52.30
2018-08-09T22:46:37.181Z,52.00
2018-08-09T22:49:05.428Z,52.00
2018-08-09T22:51:33.505Z,51.80
2018-08-09T22:54:01.579Z,51.80
2018-08-09T22:56:29.744Z,51.90
2018-08-09T22:58:57.844Z,51.80
2018-08-09T23:01:25.958Z,51.70
2018-08-09T23:03:54.069Z,51.50
2018-08-09T23:06:22.198Z,51.50
2018-08-09T23:08:50.293Z,51.40
2018-08-09T23:11:18.413Z,51.20
2018-08-09T23:22:35.387Z,49.70
2018-08-09T23:27:57.065Z,48.00
2018-08-09T23:30:25.155Z,48.40
2018-08-09T23:32:53.224Z,48.00
2018-08-09T23:35:21.332Z,48.10
2018-08-09T23:37:49.470Z,47.90
2018-08-09T23:40:17.591Z,47.10
2018-08-09T23:42:45.747Z,47.00
2018-08-09T23:45:13.832Z,47.10
2018-08-09T23:47:41.904Z,46.30
2018-08-09T23:50:11.503Z,46.50
2018-08-09T23:52:40.340Z,46.40
2018-08-09T23:55:10.186Z,45.70
2018-08-09T23:57:38.311Z,45.80
